Time;durP1;ratioP1;P1;durP2;ratioP2;P2;SDS_P1;SDS_P2;PMS_P1;PMS_P2;Temp;Humidity;BMP_temperature;BMP_pressure;BME280_temperature;BME280_humidity;BME280_pressure;Samples;Min_cycle;Max_cycle;Signal;HPM_P1;HPM_P2
2021/01/16 00:01:36;;;;;;;29.87;10.83;;;;;;;0.51;100.00;101607.09;5140767;27;20436;-38
2021/01/16 00:04:23;;;;;;;16.80;10.17;;;;;;;0.67;100.00;101606.25;5140566;27;20497;-36
2021/01/16 00:07:09;;;;;;;13.23;10.10;;;;;;;0.61;100.00;101603.38;5140646;27;20444;-35
2021/01/16 00:09:55;;;;;;;15.50;10.00;;;;;;;0.78;100.00;101599.19;5140629;27;20881;-38
2021/01/16 00:12:50;;;;;;;16.10;11.30;;;;;;;1.03;100.00;101592.00;5140819;27;20479;-36
2021/01/16 00:15:36;;;;;;;15.70;9.93;;;;;;;0.73;100.00;101592.97;5140397;27;20742;-37
2021/01/16 00:18:24;;;;;;;17.87;10.80;;;;;;;0.58;100.00;101593.06;5140675;27;20911;-36
2021/01/16 00:21:10;;;;;;;16.20;10.97;;;;;;;0.63;100.00;101589.94;5140398;27;20448;-38
2021/01/16 00:23:57;;;;;;;20.37;11.37;;;;;;;0.79;100.00;101590.75;5140232;27;20439;-40
2021/01/16 00:26:45;;;;;;;19.03;11.77;;;;;;;0.53;100.00;101602.97;5140312;27;20452;-35
2021/01/16 00:29:32;;;;;;;19.33;11.77;;;;;;;1.12;100.00;101591.59;5140368;27;20436;-36
2021/01/16 00:32:19;;;;;;;16.97;10.80;;;;;;;1.34;100.00;101594.44;5139940;27;20466;-36
2021/01/16 00:35:10;;;;;;;19.13;11.43;;;;;;;0.89;100.00;101588.75;5140349;27;20454;-35
2021/01/16 00:38:00;;;;;;;19.13;10.93;;;;;;;1.28;100.00;101591.56;5139733;27;20443;-33
2021/01/16 00:40:49;;;;;;;18.30;10.53;;;;;;;1.18;100.00;101587.69;5139957;27;20438;-38
2021/01/16 00:43:35;;;;;;;18.43;11.40;;;;;;;1.26;100.00;101594.03;5139893;27;20695;-35
2021/01/16 00:46:22;;;;;;;19.77;11.57;;;;;;;0.87;100.00;101592.00;5139686;27;20521;-35
2021/01/16 00:49:08;;;;;;;15.80;9.83;;;;;;;0.80;100.00;101593.34;5139725;27;20451;-40
2021/01/16 00:51:55;;;;;;;16.97;11.50;;;;;;;0.58;100.00;101590.50;5139886;27;20473;-38
2021/01/16 00:54:41;;;;;;;18.03;11.30;;;;;;;0.61;100.00;101581.31;5139637;27;20443;-35
2021/01/16 00:57:28;;;;;;;18.30;10.93;;;;;;;0.99;100.00;101574.81;5139754;27;20443;-36
2021/01/16 01:00:15;;;;;;;21.33;11.50;;;;;;;1.23;100.00;101581.13;5139464;27;20467;-37
2021/01/16 01:03:03;;;;;;;20.80;11.80;;;;;;;1.31;100.00;101587.50;5139709;27;20443;-38
2021/01/16 01:05:51;;;;;;;17.50;12.03;;;;;;;1.25;100.00;101584.63;5139585;27;20857;-36
2021/01/16 01:08:38;;;;;;;20.37;12.80;;;;;;;1.44;100.00;101588.97;5139459;27;20443;-38
2021/01/16 01:11:27;;;;;;;18.37;11.80;;;;;;;1.17;100.00;101587.63;5139528;27;20500;-37
2021/01/16 01:14:13;;;;;;;19.03;11.53;;;;;;;1.03;100.00;101582.69;5139339;27;20942;-35
2021/01/16 01:17:03;;;;;;;18.47;12.00;;;;;;;0.98;100.00;101576.50;5139698;27;20710;-37
2021/01/16 01:19:53;;;;;;;19.83;12.40;;;;;;;0.82;100.00;101573.94;5139560;27;20441;-35
2021/01/16 01:22:42;;;;;;;18.00;12.10;;;;;;;0.92;100.00;101571.09;5138990;27;20706;-32
2021/01/16 01:25:28;;;;;;;21.67;12.73;;;;;;;0.96;100.00;101569.56;5139457;27;20885;-38
2021/01/16 01:28:17;;;;;;;21.37;12.10;;;;;;;1.14;100.00;101573.03;5139203;27;20443;-36
2021/01/16 01:31:03;;;;;;;20.30;11.90;;;;;;;1.26;100.00;101570.22;5139500;27;20440;-39
2021/01/16 01:33:54;;;;;;;26.23;13.10;;;;;;;1.40;100.00;101565.84;5139515;27;20819;-43
2021/01/16 01:36:44;;;;;;;19.30;12.30;;;;;;;1.34;100.00;101577.47;5139507;27;20435;-44
2021/01/16 01:39:32;;;;;;;22.30;13.07;;;;;;;0.85;100.00;101563.91;5139134;27;20446;-38
2021/01/16 01:42:21;;;;;;;23.27;13.17;;;;;;;0.63;100.00;101567.00;5139561;27;20434;-36
2021/01/16 01:45:09;;;;;;;20.03;12.30;;;;;;;0.45;100.00;101562.63;5138646;27;20882;-35
2021/01/16 01:47:57;;;;;;;20.97;12.63;;;;;;;0.68;100.00;101564.72;5139184;27;20458;-36
2021/01/16 01:50:44;;;;;;;20.60;11.97;;;;;;;0.83;100.00;101557.84;5139120;27;20450;-38
2021/01/16 01:53:33;;;;;;;17.53;11.43;;;;;;;0.75;100.00;101569.34;5138794;27;20483;-34
2021/01/16 01:56:29;;;;;;;17.50;11.30;;;;;;;1.08;100.00;101566.75;5138883;27;20442;-37
2021/01/16 01:59:17;;;;;;;18.93;11.10;;;;;;;1.03;100.00;101562.28;5138499;27;20540;-34
2021/01/16 02:02:04;;;;;;;19.67;12.00;;;;;;;1.22;100.00;101568.31;5138683;27;20612;-35
2021/01/16 02:04:58;;;;;;;19.93;12.27;;;;;;;1.38;100.00;101558.09;5138862;27;20455;-35
2021/01/16 02:07:44;;;;;;;18.27;11.90;;;;;;;1.27;100.00;101557.56;5138542;27;20532;-33
2021/01/16 02:10:33;;;;;;;21.40;11.37;;;;;;;1.40;100.00;101556.47;5138737;27;20444;-34
2021/01/16 02:13:19;;;;;;;20.17;12.63;;;;;;;1.43;100.00;101551.53;5138403;27;20764;-34
2021/01/16 02:16:11;;;;;;;19.27;12.67;;;;;;;1.34;100.00;101548.56;5138670;27;20714;-34
2021/01/16 02:19:01;;;;;;;19.80;12.07;;;;;;;1.30;100.00;101546.66;5138330;28;20602;-34
2021/01/16 02:21:49;;;;;;;18.53;12.53;;;;;;;1.37;100.00;101544.47;5138475;28;20445;-33
2021/01/16 02:24:43;;;;;;;23.10;13.07;;;;;;;1.33;100.00;101542.59;5138208;28;20581;-36
2021/01/16 02:27:42;;;;;;;22.37;13.20;;;;;;;1.30;100.00;101541.56;5138173;28;20444;-33
2021/01/16 02:30:29;;;;;;;19.93;13.27;;;;;;;1.26;100.00;101544.75;5138164;28;20443;-35
2021/01/16 02:33:20;;;;;;;22.07;13.63;;;;;;;1.17;100.00;101534.09;5137824;28;20486;-39
2021/01/16 02:36:24;;;;;;;20.77;13.03;;;;;;;1.20;100.00;101532.56;5138398;28;20809;-34
2021/01/16 02:39:19;;;;;;;26.80;13.87;;;;;;;1.14;100.00;101531.41;5138268;28;21036;-35
2021/01/16 02:42:09;;;;;;;20.90;13.00;;;;;;;0.94;100.00;101523.66;5138155;28;20852;-36
2021/01/16 02:45:04;;;;;;;22.30;14.27;;;;;;;0.59;100.00;101524.41;5138445;28;20539;-37
2021/01/16 02:48:01;;;;;;;18.90;12.17;;;;;;;1.00;100.00;101520.50;5137970;28;20537;-36
2021/01/16 02:50:53;;;;;;;23.07;13.90;;;;;;;0.81;100.00;101518.72;5138138;28;20526;-39
2021/01/16 02:53:46;;;;;;;25.13;13.23;;;;;;;1.05;100.00;101511.44;5138071;28;20476;-38
2021/01/16 02:56:36;;;;;;;22.77;13.27;;;;;;;1.15;100.00;101512.78;5140147;27;20447;-34
2021/01/16 02:59:23;;;;;;;22.00;13.40;;;;;;;1.21;100.00;101510.50;5141959;27;20475;-32
2021/01/16 03:02:12;;;;;;;23.23;12.93;;;;;;;1.16;100.00;101511.97;5141990;27;20733;-39
2021/01/16 03:05:01;;;;;;;20.90;13.70;;;;;;;0.90;100.00;101509.00;5142045;27;20448;-38
2021/01/16 03:07:51;;;;;;;22.57;13.60;;;;;;;1.14;100.00;101509.34;5141807;27;20450;-35
2021/01/16 03:10:38;;;;;;;21.37;13.60;;;;;;;1.06;100.00;101509.75;5142058;27;20475;-37
2021/01/16 03:13:26;;;;;;;23.00;13.60;;;;;;;1.20;100.00;101508.78;5142030;27;20644;-39
2021/01/16 03:16:25;;;;;;;21.63;12.43;;;;;;;1.22;100.00;101502.06;5141840;27;20436;-35
2021/01/16 03:19:19;;;;;;;22.07;13.67;;;;;;;0.72;100.00;101505.53;5141443;27;20477;-33
2021/01/16 03:22:20;;;;;;;20.63;13.40;;;;;;;1.07;100.00;101496.22;5141631;27;20443;-35
2021/01/16 03:25:08;;;;;;;20.97;13.03;;;;;;;0.98;100.00;101505.19;5141897;27;20876;-39
2021/01/16 03:27:55;;;;;;;20.43;12.10;;;;;;;1.16;100.00;101500.09;5141249;27;20535;-34
2021/01/16 03:30:41;;;;;;;22.47;13.37;;;;;;;1.32;100.00;101506.81;5141097;27;20439;-36
2021/01/16 03:33:28;;;;;;;19.30;11.87;;;;;;;1.03;100.00;101506.25;5141457;27;20576;-35
2021/01/16 03:36:15;;;;;;;22.77;13.93;;;;;;;0.92;100.00;101504.84;5141623;27;20525;-36
2021/01/16 03:39:02;;;;;;;21.30;13.20;;;;;;;0.95;100.00;101505.03;5141134;27;20439;-37
2021/01/16 03:41:49;;;;;;;19.43;12.30;;;;;;;0.67;100.00;101506.94;5126212;27;20435;-35
2021/01/16 03:44:35;;;;;;;22.50;12.30;;;;;;;0.84;100.00;101500.16;5141221;27;20435;-36
2021/01/16 03:47:22;;;;;;;25.43;12.50;;;;;;;0.83;100.00;101500.97;5141293;27;20448;-35
2021/01/16 03:50:09;;;;;;;20.57;13.00;;;;;;;0.97;100.00;101489.81;5141228;27;20443;-39
2021/01/16 03:52:56;;;;;;;19.93;12.70;;;;;;;1.18;100.00;101505.28;5140495;27;20576;-37
2021/01/16 03:55:43;;;;;;;22.83;14.73;;;;;;;1.13;100.00;101491.44;5141149;27;20447;-38
2021/01/16 03:58:29;;;;;;;23.73;13.57;;;;;;;1.34;100.00;101495.03;5140798;27;20482;-39
2021/01/16 04:01:15;;;;;;;21.93;13.90;;;;;;;1.47;100.00;101499.03;5141082;27;20588;-37
2021/01/16 04:04:03;;;;;;;23.93;13.73;;;;;;;1.17;100.00;101498.44;5141014;27;20521;-35
2021/01/16 04:06:49;;;;;;;22.30;12.63;;;;;;;0.96;100.00;101490.63;5140616;27;20439;-36
2021/01/16 04:09:36;;;;;;;21.80;13.30;;;;;;;1.24;100.00;101495.38;5140519;27;20533;-36
2021/01/16 04:12:22;;;;;;;21.97;12.43;;;;;;;1.17;100.00;101480.59;5140877;27;20513;-37
2021/01/16 04:15:12;;;;;;;25.93;14.23;;;;;;;1.44;100.00;101483.59;5140896;27;20444;-37
2021/01/16 04:17:59;;;;;;;25.60;14.30;;;;;;;1.33;100.00;101483.97;5140546;27;20439;-36
2021/01/16 04:20:45;;;;;;;25.10;14.50;;;;;;;1.22;100.00;101481.69;5140650;27;20597;-33
2021/01/16 04:23:34;;;;;;;22.83;14.50;;;;;;;0.93;100.00;101478.59;5140532;27;20443;-37
2021/01/16 04:26:21;;;;;;;24.53;14.23;;;;;;;0.69;100.00;101474.81;5140719;27;20505;-35
2021/01/16 04:29:07;;;;;;;24.70;14.53;;;;;;;0.97;100.00;101475.41;5140249;27;20439;-37
2021/01/16 04:31:54;;;;;;;23.97;14.20;;;;;;;0.99;100.00;101473.81;5140210;27;20447;-37
2021/01/16 04:34:41;;;;;;;23.37;14.53;;;;;;;1.00;100.00;101474.66;5140077;27;20470;-36
2021/01/16 04:37:27;;;;;;;22.23;14.23;;;;;;;1.17;100.00;101468.75;5140496;27;20435;-36
2021/01/16 04:40:13;;;;;;;24.93;14.30;;;;;;;0.91;100.00;101467.44;5140308;27;20498;-36
2021/01/16 04:43:05;;;;;;;24.73;14.10;;;;;;;0.80;100.00;101473.66;5140452;27;20497;-36
2021/01/16 04:46:00;;;;;;;25.93;14.60;;;;;;;1.12;100.00;101475.28;5140303;27;20478;-37
2021/01/16 04:48:54;;;;;;;22.47;13.97;;;;;;;1.17;100.00;101463.63;5140246;27;20734;-37
2021/01/16 04:51:45;;;;;;;25.93;14.47;;;;;;;1.14;100.00;101462.63;5140104;27;20447;-33
2021/01/16 04:54:32;;;;;;;26.03;15.13;;;;;;;0.81;100.00;101456.72;5140005;27;20761;-36
2021/01/16 04:57:19;;;;;;;24.87;13.40;;;;;;;0.92;100.00;101463.22;5140415;27;20865;-34
2021/01/16 05:00:09;;;;;;;25.23;14.77;;;;;;;0.70;100.00;101461.28;5139913;27;20568;-33
2021/01/16 05:03:03;;;;;;;23.67;14.03;;;;;;;0.71;100.00;101450.31;5139846;27;20440;-36
2021/01/16 05:05:57;;;;;;;21.43;13.47;;;;;;;0.76;100.00;101443.78;5139674;27;20439;-34
2021/01/16 05:08:44;;;;;;;26.23;15.10;;;;;;;0.80;100.00;101440.56;5139308;27;20885;-38
2021/01/16 05:11:39;;;;;;;25.27;14.07;;;;;;;1.10;100.00;101435.22;5139799;27;20446;-34
2021/01/16 05:14:36;;;;;;;25.63;14.80;;;;;;;1.35;100.00;101446.69;5139524;27;20475;-38
2021/01/16 05:17:26;;;;;;;23.60;13.60;;;;;;;0.70;100.00;101433.28;5139992;27;20436;-37
2021/01/16 05:20:13;;;;;;;21.17;13.53;;;;;;;0.38;100.00;101426.59;5139289;27;20458;-38
2021/01/16 05:23:13;;;;;;;24.53;14.80;;;;;;;0.84;100.00;101426.31;5139421;27;20517;-36
2021/01/16 05:25:59;;;;;;;23.37;13.63;;;;;;;0.64;100.00;101421.13;5139817;27;20509;-36
2021/01/16 05:28:45;;;;;;;21.83;13.70;;;;;;;1.08;100.00;101412.22;5139610;27;20447;-36
2021/01/16 05:31:32;;;;;;;20.63;13.27;;;;;;;0.56;100.00;101408.81;5139621;27;20443;-37
2021/01/16 05:34:22;;;;;;;23.70;14.40;;;;;;;1.06;100.00;101406.19;5139401;27;20763;-33
2021/01/16 05:37:08;;;;;;;23.83;13.93;;;;;;;0.99;100.00;101405.03;5139708;27;20443;-35
2021/01/16 05:39:57;;;;;;;25.43;14.47;;;;;;;0.92;100.00;101402.97;5139362;27;20447;-33
2021/01/16 05:42:43;;;;;;;25.37;15.33;;;;;;;0.87;100.00;101401.88;5138840;27;20443;-38
2021/01/16 05:45:34;;;;;;;21.37;13.27;;;;;;;1.03;100.00;101393.28;5139145;27;20447;-35
2021/01/16 05:48:22;;;;;;;23.97;13.30;;;;;;;1.06;100.00;101397.66;5138877;27;20447;-34
2021/01/16 05:51:09;;;;;;;20.47;14.13;;;;;;;1.25;100.00;101395.19;5139108;27;20440;-33
2021/01/16 05:53:56;;;;;;;21.30;14.20;;;;;;;0.99;100.00;101396.53;5138665;27;20478;-35
2021/01/16 05:56:44;;;;;;;24.77;14.67;;;;;;;1.12;100.00;101401.38;5138678;27;20446;-34
2021/01/16 05:59:32;;;;;;;23.93;14.93;;;;;;;1.00;100.00;101401.66;5138917;27;20483;-39
2021/01/16 06:02:19;;;;;;;23.70;13.73;;;;;;;1.28;100.00;101401.31;5138515;27;20447;-34
2021/01/16 06:05:08;;;;;;;22.70;12.97;;;;;;;1.22;100.00;101410.31;5138293;27;20439;-34
2021/01/16 06:07:56;;;;;;;25.93;13.07;;;;;;;0.72;100.00;101411.31;5138488;27;20714;-37
2021/01/16 06:10:43;;;;;;;20.90;13.43;;;;;;;0.75;100.00;101405.50;5138476;27;20678;-35
2021/01/16 06:13:34;;;;;;;25.37;14.30;;;;;;;1.07;100.00;101402.84;5138370;27;20494;-34
2021/01/16 06:16:21;;;;;;;24.30;13.27;;;;;;;1.06;100.00;101407.84;5138291;27;20868;-34
2021/01/16 06:19:09;;;;;;;26.33;13.37;;;;;;;1.11;100.00;101404.75;5138525;28;20515;-35
2021/01/16 06:21:55;;;;;;;20.23;13.50;;;;;;;0.74;100.00;101399.53;5138730;28;20441;-35
2021/01/16 06:24:47;;;;;;;23.27;13.73;;;;;;;0.95;100.00;101392.94;5138371;28;20856;-34
2021/01/16 06:27:35;;;;;;;23.60;14.70;;;;;;;0.90;100.00;101394.41;5138566;28;20439;-34
2021/01/16 06:30:28;;;;;;;21.97;14.23;;;;;;;0.75;100.00;101396.19;5140155;27;20442;-34
2021/01/16 06:33:25;;;;;;;21.67;12.93;;;;;;;0.82;100.00;101388.03;5142326;27;20476;-36
2021/01/16 06:36:14;;;;;;;21.70;12.67;;;;;;;0.40;100.00;101379.16;5142419;27;20536;-37
2021/01/16 06:39:04;;;;;;;19.87;13.67;;;;;;;0.43;100.00;101371.69;5142332;27;21007;-34
2021/01/16 06:41:54;;;;;;;24.03;15.03;;;;;;;0.76;100.00;101376.72;5142330;27;20585;-35
2021/01/16 06:44:41;;;;;;;22.03;14.80;;;;;;;0.93;100.00;101376.72;5142336;27;20436;-37
2021/01/16 06:47:30;;;;;;;25.90;14.43;;;;;;;0.77;100.00;101366.59;5141924;27;20442;-35
2021/01/16 06:50:17;;;;;;;20.33;12.63;;;;;;;0.44;100.00;101362.38;5142432;27;20709;-33
2021/01/16 06:53:05;;;;;;;21.93;13.97;;;;;;;0.65;100.00;101358.34;5141929;27;20439;-36
2021/01/16 06:56:05;;;;;;;24.90;14.17;;;;;;;0.96;100.00;101355.63;5142354;27;20534;-38
2021/01/16 06:58:56;;;;;;;24.30;15.27;;;;;;;0.46;100.00;101348.06;5142133;27;20475;-34
2021/01/16 07:01:42;;;;;;;22.17;13.83;;;;;;;0.66;100.00;101349.91;5141936;27;20448;-35
2021/01/16 07:04:32;;;;;;;22.97;13.77;;;;;;;0.63;100.00;101350.63;5141970;27;20844;-32
2021/01/16 07:07:31;;;;;;;21.50;13.77;;;;;;;0.89;100.00;101349.34;5142137;27;20439;-36
2021/01/16 07:10:20;;;;;;;25.27;13.43;;;;;;;0.56;100.00;101350.28;5141899;27;21017;-33
2021/01/16 07:13:12;;;;;;;23.13;13.53;;;;;;;0.54;100.00;101354.41;5141835;27;20541;-34
2021/01/16 07:16:03;;;;;;;22.17;14.33;;;;;;;0.92;100.00;101349.50;5141859;27;20446;-35
2021/01/16 07:18:52;;;;;;;25.93;14.10;;;;;;;0.83;100.00;101348.16;5141388;27;20447;-33
2021/01/16 07:21:42;;;;;;;22.03;13.40;;;;;;;0.96;100.00;101341.22;5141282;27;20439;-36
2021/01/16 07:24:28;;;;;;;25.43;14.17;;;;;;;0.86;100.00;101336.47;5141246;27;20604;-37
2021/01/16 07:27:14;;;;;;;24.47;12.60;;;;;;;0.81;100.00;101345.56;5141154;27;20439;-37
2021/01/16 07:30:05;;;;;;;25.37;13.83;;;;;;;0.84;100.00;101332.09;5141256;27;20517;-37
2021/01/16 07:32:53;;;;;;;24.00;14.03;;;;;;;0.62;100.00;101336.16;5140812;27;20434;-35
2021/01/16 07:35:49;;;;;;;24.17;15.27;;;;;;;1.01;100.00;101344.81;5140971;27;20446;-35
2021/01/16 07:38:39;;;;;;;22.30;14.80;;;;;;;1.14;100.00;101343.75;5141157;27;20447;-33
2021/01/16 07:41:31;;;;;;;22.33;13.50;;;;;;;1.30;100.00;101352.97;5140393;27;20600;-35
2021/01/16 07:44:19;;;;;;;23.03;13.70;;;;;;;1.31;100.00;101350.50;5140940;27;20439;-35
2021/01/16 07:47:22;;;;;;;21.40;13.07;;;;;;;1.11;100.00;101345.28;5141015;27;20440;-34
2021/01/16 07:50:22;;;;;;;25.03;13.63;;;;;;;1.34;100.00;101349.75;5140844;27;20918;-38
2021/01/16 07:53:09;;;;;;;23.37;14.10;;;;;;;1.06;100.00;101341.63;5134741;27;20542;-37
2021/01/16 07:56:03;;;;;;;22.43;14.30;;;;;;;1.06;100.00;101336.53;5120107;28;20510;-35
2021/01/16 07:59:13;;;;;;;27.90;14.13;;;;;;;0.59;100.00;101341.13;5125008;27;20494;-38
2021/01/16 08:02:27;;;;;;;21.87;12.87;;;;;;;0.86;100.00;101330.50;5140802;27;20444;-39
2021/01/16 08:05:25;;;;;;;20.47;13.17;;;;;;;0.82;100.00;101324.38;5140786;27;20439;-38
2021/01/16 08:08:35;;;;;;;22.60;13.77;;;;;;;0.72;100.00;101328.97;5140148;27;20549;-40
2021/01/16 08:11:30;;;;;;;23.13;13.73;;;;;;;0.57;100.00;101327.44;5140607;27;20441;-40
2021/01/16 08:14:21;;;;;;;23.50;14.53;;;;;;;0.93;100.00;101325.78;5140766;27;20583;-34
2021/01/16 08:17:13;;;;;;;20.63;13.00;;;;;;;0.95;100.00;101321.63;5140331;27;20444;-37
2021/01/16 08:20:27;;;;;;;23.20;14.43;;;;;;;1.00;100.00;101322.69;5140321;27;20440;-37
2021/01/16 08:23:23;;;;;;;23.27;14.20;;;;;;;1.16;100.00;101318.34;5140292;27;20596;-37
2021/01/16 08:26:09;;;;;;;21.53;14.80;;;;;;;0.74;100.00;101309.56;5140371;27;20531;-36
2021/01/16 08:28:58;;;;;;;23.30;13.57;;;;;;;0.75;100.00;101309.63;5140489;27;20443;-34
2021/01/16 08:31:45;;;;;;;21.37;12.97;;;;;;;0.94;100.00;101311.38;5140382;27;20440;-37
2021/01/16 08:34:49;;;;;;;24.87;14.73;;;;;;;0.90;100.00;101312.91;5140079;27;20478;-34
2021/01/16 08:37:37;;;;;;;21.57;13.80;;;;;;;0.89;100.00;101307.72;5139874;27;20439;-35
2021/01/16 08:40:33;;;;;;;22.47;13.60;;;;;;;0.76;100.00;101306.28;5124559;27;20447;-35
2021/01/16 08:43:29;;;;;;;25.07;14.37;;;;;;;1.09;100.00;101306.09;5139566;27;20439;-40
2021/01/16 08:46:17;;;;;;;24.50;13.97;;;;;;;1.08;100.00;101289.06;5139535;27;20619;-35
2021/01/16 08:49:07;;;;;;;24.20;14.33;;;;;;;0.94;100.00;101296.09;5139420;27;20439;-39
2021/01/16 08:51:53;;;;;;;24.13;14.70;;;;;;;0.88;100.00;101289.03;5137732;27;20736;-34
2021/01/16 08:54:58;;;;;;;22.47;13.93;;;;;;;1.01;100.00;101278.59;5137883;27;20226;-37
2021/01/16 08:57:47;;;;;;;21.00;13.50;;;;;;;0.99;100.00;101272.59;5138650;27;20201;-37
2021/01/16 09:00:35;;;;;;;20.40;13.13;;;;;;;1.11;100.00;101277.34;5138815;27;20443;-40
2021/01/16 09:03:25;;;;;;;20.93;13.57;;;;;;;1.29;100.00;101279.88;5138612;27;20443;-37
2021/01/16 09:06:18;;;;;;;25.30;15.30;;;;;;;1.20;100.00;101279.47;5137972;27;20880;-35
2021/01/16 09:09:05;;;;;;;24.73;14.67;;;;;;;1.15;100.00;101279.25;5138233;27;20458;-34
2021/01/16 09:12:10;;;;;;;22.70;12.97;;;;;;;1.08;100.00;101271.25;5138777;27;20505;-38
2021/01/16 09:15:17;;;;;;;19.07;12.80;;;;;;;1.06;100.00;101276.28;5138690;27;20230;-37
2021/01/16 09:18:09;;;;;;;21.03;11.90;;;;;;;1.15;100.00;101275.84;5139180;27;20505;-40
2021/01/16 09:21:01;;;;;;;20.47;13.07;;;;;;;1.26;100.00;101270.41;5138545;27;20214;-36
2021/01/16 09:23:47;;;;;;;22.37;13.30;;;;;;;1.32;100.00;101277.47;5138267;27;20197;-37
2021/01/16 09:26:36;;;;;;;20.73;13.57;;;;;;;1.16;100.00;101275.91;5135553;27;20209;-35
2021/01/16 09:29:28;;;;;;;22.83;14.17;;;;;;;1.04;100.00;101271.09;5138457;27;20225;-35
2021/01/16 09:32:35;;;;;;;21.77;14.03;;;;;;;1.22;100.00;101273.59;5138537;27;20603;-33
2021/01/16 09:35:37;;;;;;;22.80;13.83;;;;;;;1.16;100.00;101269.94;5138138;27;20225;-37
2021/01/16 09:38:24;;;;;;;23.03;13.90;;;;;;;1.22;100.00;101282.94;5138671;27;20534;-36
2021/01/16 09:41:10;;;;;;;23.37;12.80;;;;;;;1.19;100.00;101278.59;5139072;27;20526;-36
2021/01/16 09:43:56;;;;;;;18.50;12.43;;;;;;;1.11;100.00;101268.84;5139010;27;20528;-33
2021/01/16 09:46:44;;;;;;;21.67;12.73;;;;;;;1.35;100.00;101281.03;5138661;27;20451;-36
2021/01/16 09:49:44;;;;;;;23.37;12.73;;;;;;;1.72;100.00;101272.44;5139046;27;20197;-33
2021/01/16 09:52:31;;;;;;;19.47;12.70;;;;;;;1.31;100.00;101270.63;5138238;27;20608;-39
2021/01/16 09:55:26;;;;;;;20.27;13.03;;;;;;;1.24;100.00;101264.34;5138361;27;20217;-39
2021/01/16 09:58:32;;;;;;;23.27;13.00;;;;;;;1.81;100.00;101265.16;5138171;27;20249;-37
2021/01/16 10:01:23;;;;;;;18.20;12.47;;;;;;;1.47;100.00;101265.38;5138016;27;20205;-33
2021/01/16 10:04:23;;;;;;;18.83;11.90;;;;;;;1.72;100.00;101263.09;5137953;27;20193;-34
2021/01/16 10:07:10;;;;;;;19.60;12.10;;;;;;;1.81;100.00;101254.09;5137923;27;20251;-36
2021/01/16 10:09:56;;;;;;;20.33;12.90;;;;;;;1.76;100.00;101243.72;5138205;27;20496;-39
2021/01/16 10:12:43;;;;;;;23.27;12.97;;;;;;;1.55;100.00;101241.13;5138558;27;20282;-37
2021/01/16 10:15:33;;;;;;;22.87;14.10;;;;;;;1.67;100.00;101239.06;5137531;27;20233;-37
2021/01/16 10:18:21;;;;;;;24.83;13.10;;;;;;;1.95;100.00;101236.03;5137924;28;20453;-34
2021/01/16 10:21:10;;;;;;;17.27;12.17;;;;;;;1.93;100.00;101221.47;5137238;28;20193;-34
2021/01/16 10:23:58;;;;;;;20.77;12.57;;;;;;;1.46;100.00;101227.09;5137453;28;20197;-37
2021/01/16 10:26:46;;;;;;;18.50;12.13;;;;;;;1.59;100.00;101224.28;5136586;27;20194;-35
2021/01/16 10:29:38;;;;;;;18.97;12.43;;;;;;;1.69;100.00;101221.28;5137964;28;20595;-32
2021/01/16 10:32:25;;;;;;;22.33;13.20;;;;;;;1.69;100.00;101211.97;5119757;28;20283;-38
2021/01/16 10:35:20;;;;;;;19.77;12.67;;;;;;;1.81;100.00;101210.72;5130541;28;20507;-34
2021/01/16 10:38:35;;;;;;;19.17;12.37;;;;;;;1.97;100.00;101202.94;5137755;28;20472;-33
2021/01/16 10:41:34;;;;;;;19.60;12.23;;;;;;;1.97;100.00;101197.81;5138139;28;20198;-34
2021/01/16 10:44:22;;;;;;;20.00;11.87;;;;;;;1.63;100.00;101204.06;5137388;28;20193;-37
2021/01/16 10:47:31;;;;;;;21.13;12.93;;;;;;;1.62;100.00;101202.31;5137530;28;20198;-32
2021/01/16 10:50:23;;;;;;;18.73;12.73;;;;;;;1.88;100.00;101197.44;5136196;28;20214;-33
2021/01/16 10:53:10;;;;;;;20.23;11.90;;;;;;;1.47;100.00;101203.34;5117449;28;20201;-35
2021/01/16 10:55:59;;;;;;;22.13;12.40;;;;;;;1.59;100.00;101207.31;5116539;28;20287;-37
2021/01/16 10:58:46;;;;;;;16.90;11.70;;;;;;;1.68;100.00;101200.03;5116613;28;20856;-38
2021/01/16 11:01:45;;;;;;;21.97;12.97;;;;;;;1.84;100.00;101190.44;5116237;28;20222;-36
2021/01/16 11:04:39;;;;;;;18.37;12.27;;;;;;;1.72;100.00;101184.06;5117005;28;20537;-36
2021/01/16 11:07:30;;;;;;;20.30;12.63;;;;;;;2.14;100.00;101181.50;5116347;28;20195;-37
2021/01/16 11:10:19;;;;;;;17.63;11.47;;;;;;;2.08;100.00;101176.16;5116121;28;20194;-36
2021/01/16 11:13:21;;;;;;;22.47;13.00;;;;;;;2.33;100.00;101173.78;5116244;28;20288;-39
2021/01/16 11:16:14;;;;;;;20.30;12.20;;;;;;;2.65;100.00;101171.56;5116388;28;20190;-33
2021/01/16 11:19:14;;;;;;;18.87;12.37;;;;;;;2.58;100.00;101167.94;5119925;28;20583;-36
2021/01/16 11:22:12;;;;;;;22.90;12.93;;;;;;;2.53;100.00;101158.34;5119217;27;20213;-39
2021/01/16 11:25:11;;;;;;;19.30;12.37;;;;;;;2.65;100.00;101153.69;5119495;28;20194;-34
2021/01/16 11:28:09;;;;;;;18.73;12.90;;;;;;;2.29;100.00;101154.03;5119809;28;20485;-35
2021/01/16 11:31:05;;;;;;;19.77;12.70;;;;;;;2.17;100.00;101147.59;5119959;28;20194;-35
2021/01/16 11:34:19;;;;;;;18.10;11.90;;;;;;;2.41;100.00;101141.72;5119782;28;20307;-36
2021/01/16 11:37:05;;;;;;;20.47;12.40;;;;;;;2.50;100.00;101141.22;5119757;28;20198;-35
2021/01/16 11:39:53;;;;;;;22.03;12.93;;;;;;;2.05;100.00;101130.97;5120040;28;20198;-37
2021/01/16 11:42:50;;;;;;;19.60;11.93;;;;;;;2.52;100.00;101136.19;5119506;28;20204;-34
2021/01/16 11:45:38;;;;;;;21.57;11.83;;;;;;;2.29;100.00;101136.16;5119387;28;20474;-33
2021/01/16 11:48:25;;;;;;;20.03;13.10;;;;;;;2.60;100.00;101127.97;5121093;27;20210;-37
2021/01/16 11:51:12;;;;;;;16.73;11.30;;;;;;;2.54;100.00;101124.34;5139915;27;20488;-33
2021/01/16 11:53:59;;;;;;;16.97;11.87;;;;;;;2.63;100.00;101122.13;5139692;27;20224;-35
2021/01/16 11:56:46;;;;;;;20.33;11.37;;;;;;;2.71;100.00;101111.38;5139988;27;20263;-34
2021/01/16 11:59:44;;;;;;;16.67;10.50;;;;;;;2.39;100.00;101112.75;5139651;27;20514;-35
2021/01/16 12:02:50;;;;;;;20.80;11.80;;;;;;;2.71;100.00;101103.72;5119795;28;20742;-36
2021/01/16 12:05:36;;;;;;;18.37;10.80;;;;;;;2.88;100.00;101104.31;5133001;27;20251;-37
2021/01/16 12:08:24;;;;;;;15.73;10.80;;;;;;;2.91;100.00;101114.66;5140229;27;20217;-38
2021/01/16 12:11:11;;;;;;;22.57;11.97;;;;;;;2.59;100.00;101093.06;5139316;27;20206;-34
2021/01/16 12:13:57;;;;;;;18.23;10.87;;;;;;;2.22;100.00;101093.34;5139227;27;20221;-37
2021/01/16 12:16:44;;;;;;;15.73;10.53;;;;;;;2.76;100.00;101086.88;5139630;27;20591;-38
2021/01/16 12:19:33;;;;;;;15.40;10.20;;;;;;;2.32;100.00;101082.69;5139858;27;20197;-35
2021/01/16 12:22:22;;;;;;;15.03;10.07;;;;;;;2.83;100.00;101081.97;5139568;27;20335;-34
2021/01/16 12:25:11;;;;;;;20.40;11.70;;;;;;;2.73;100.00;101079.09;5139803;27;20286;-33
2021/01/16 12:27:58;;;;;;;19.47;11.60;;;;;;;2.88;100.00;101078.78;5139654;27;20291;-34
2021/01/16 12:30:45;;;;;;;16.47;10.60;;;;;;;2.37;100.00;101063.31;5139330;27;20197;-37
2021/01/16 12:33:33;;;;;;;17.67;11.70;;;;;;;2.67;100.00;101067.78;5139539;27;20446;-33
2021/01/16 12:36:21;;;;;;;18.43;10.53;;;;;;;2.44;100.00;101064.38;5139669;27;20210;-32
2021/01/16 12:39:07;;;;;;;17.93;11.20;;;;;;;2.66;100.00;101064.34;5139224;27;20724;-36
2021/01/16 12:41:59;;;;;;;20.30;10.17;;;;;;;2.57;100.00;101055.50;5139711;27;20484;-37
2021/01/16 12:44:45;;;;;;;12.50;10.17;;;;;;;2.85;100.00;101052.25;5139600;27;20189;-36
2021/01/16 12:47:33;;;;;;;17.97;11.33;;;;;;;2.94;100.00;101043.22;5139179;27;20471;-38
2021/01/16 12:50:22;;;;;;;16.30;10.23;;;;;;;3.03;100.00;101038.41;5138940;27;20335;-35
2021/01/16 12:53:09;;;;;;;16.53;10.20;;;;;;;2.96;100.00;101028.81;5139091;27;20487;-38
2021/01/16 12:55:55;;;;;;;18.03;10.97;;;;;;;2.64;100.00;101029.38;5138435;27;20226;-35